Terminal Aerodrome Forecast
Issued by NWS Wilmington, OH

Current Version | Previous Version | Graphics & Text | Print | Product List | Glossary On
Versions: 1 2 3 4 5 6 7 8 9 10 11 12 13 14 15 16 17 18 19
000
FTUS41 KILN 141700 RRA
TAFILN
TAF
KILN 141741Z 1418/1518 22018G27KT P6SM -SHRA OVC015
      TEMPO 1418/1422 3SM -SHRA OVC025
     FM142200 28010G18KT P6SM VCSH OVC022
     FM150200 32010G18KT P6SM -RA OVC008
     FM150400 33012G20KT 4SM -RA BR OVC008
     FM150700 33018G28KT 3SM -RASN BR OVC008
     FM150800 32017G27KT 1SM -SN OVC006
     FM151100 32015G25KT P6SM OVC008
     FM151400 31014G24KT P6SM BKN025
     FM151700 31012G22KT P6SM BKN035=

USA.gov is the U.S. government's official web portal to all federal, state and local government web resources and services.